QFA55 PAOM-PANC
Flight info
| Callsign | QFA55 |
|---|---|
| Flight time | 1h 22m |
| Altitude | 35000 |
| Route | OME J111 WINOR KROTO5 |
| Aircraft | B738/M-SDE2E3FGHIRWXY/LB1 |
Departure
| Time | 2026-04-17 10:41 |
|---|---|
| Airport | Nome Airport (PAOM) |
Arrival
| Time | 2026-04-17 12:03 |
|---|---|
| Airport | Ted Stevens Anchorage International Airport (PANC) |
| Time | Latitude | Longitude | Altitude | Speed | Heading |
|---|---|---|---|---|---|
| 2026-04-17 10:27 | 64.51087 | -165.43447 | 46 ft | 0 kts | 105° |
| 2026-04-17 10:27 | 64.51097 | -165.43530 | 47 ft | 33 kts | 105° |
| 2026-04-17 10:27 | 64.51111 | -165.43640 | 46 ft | 0 kts | 105° |
| 2026-04-17 10:37 | 64.51111 | -165.43639 | 46 ft | 0 kts | 105° |
| 2026-04-17 10:38 | 64.51110 | -165.43630 | 46 ft | 1 kts | 105° |
| 2026-04-17 10:38 | 64.51106 | -165.43597 | 46 ft | 3 kts | 106° |
| 2026-04-17 10:38 | 64.51092 | -165.43510 | 46 ft | 9 kts | 111° |
| 2026-04-17 10:38 | 64.51064 | -165.43336 | 46 ft | 13 kts | 107° |
| 2026-04-17 10:39 | 64.51031 | -165.43145 | 46 ft | 14 kts | 154° |
| 2026-04-17 10:39 | 64.50937 | -165.43202 | 46 ft | 14 kts | 202° |
| 2026-04-17 10:39 | 64.50888 | -165.43301 | 46 ft | 6 kts | 289° |
| 2026-04-17 10:39 | 64.50889 | -165.43309 | 46 ft | 0 kts | 290° |
| 2026-04-17 10:40 | 64.50890 | -165.43314 | 46 ft | 1 kts | 290° |
| 2026-04-17 10:40 | 64.50918 | -165.43491 | 47 ft | 32 kts | 290° |
| 2026-04-17 10:40 | 64.51087 | -165.44569 | 47 ft | 108 kts | 290° |
| 2026-04-17 10:41 | 64.51416 | -165.46698 | 96 ft | 164 kts | 291° |
| 2026-04-17 10:41 | 64.51760 | -165.49103 | 991 ft | 147 kts | 289° |
| 2026-04-17 10:41 | 64.52074 | -165.51382 | 1716 ft | 155 kts | 290° |
| 2026-04-17 10:41 | 64.52405 | -165.53784 | 2412 ft | 155 kts | 290° |
| 2026-04-17 10:42 | 64.52728 | -165.56156 | 3063 ft | 156 kts | 285° |
| 2026-04-17 10:42 | 64.52710 | -165.58831 | 3429 ft | 176 kts | 256° |
| 2026-04-17 10:42 | 64.52388 | -165.60632 | 3783 ft | 182 kts | 238° |
| 2026-04-17 10:42 | 64.51425 | -165.62600 | 4213 ft | 197 kts | 199° |
| 2026-04-17 10:43 | 64.49981 | -165.62474 | 4300 ft | 227 kts | 153° |
| 2026-04-17 10:43 | 64.48840 | -165.59912 | 4793 ft | 238 kts | 115° |
| 2026-04-17 10:43 | 64.48483 | -165.56017 | 5158 ft | 259 kts | 86° |
| 2026-04-17 10:43 | 64.48717 | -165.51898 | 6071 ft | 261 kts | 79° |
| 2026-04-17 10:44 | 64.48994 | -165.47745 | 6896 ft | 262 kts | 86° |
| 2026-04-17 10:44 | 64.49026 | -165.43504 | 7685 ft | 266 kts | 92° |
| 2026-04-17 10:44 | 64.48895 | -165.39193 | 8457 ft | 270 kts | 95° |
| 2026-04-17 10:44 | 64.48732 | -165.34832 | 9220 ft | 273 kts | 95° |
| 2026-04-17 10:45 | 64.48601 | -165.30411 | 9981 ft | 277 kts | 94° |
| 2026-04-17 10:45 | 64.48468 | -165.25831 | 10413 ft | 293 kts | 98° |
| 2026-04-17 10:45 | 64.48037 | -165.21092 | 10753 ft | 309 kts | 104° |
| 2026-04-17 10:45 | 64.47496 | -165.16140 | 11204 ft | 322 kts | 105° |
| 2026-04-17 10:46 | 64.46924 | -165.11085 | 11874 ft | 327 kts | 105° |
| 2026-04-17 10:46 | 64.46337 | -165.05963 | 12601 ft | 330 kts | 105° |
| 2026-04-17 10:46 | 64.45746 | -165.00793 | 13335 ft | 334 kts | 105° |
| 2026-04-17 10:46 | 64.45152 | -164.95569 | 14070 ft | 337 kts | 105° |
| 2026-04-17 10:47 | 64.44552 | -164.90293 | 14801 ft | 340 kts | 105° |
| 2026-04-17 10:47 | 64.43945 | -164.84979 | 15546 ft | 343 kts | 105° |
| 2026-04-17 10:47 | 64.43329 | -164.79626 | 16283 ft | 346 kts | 105° |
| 2026-04-17 10:47 | 64.42705 | -164.74227 | 17005 ft | 349 kts | 105° |
| 2026-04-17 10:48 | 64.42074 | -164.68778 | 17730 ft | 352 kts | 105° |
| 2026-04-17 10:48 | 64.41435 | -164.63287 | 18446 ft | 354 kts | 105° |
| 2026-04-17 10:48 | 64.40782 | -164.57692 | 19135 ft | 358 kts | 105° |
| 2026-04-17 10:48 | 64.40128 | -164.52108 | 19791 ft | 361 kts | 105° |
| 2026-04-17 10:49 | 64.39466 | -164.46469 | 20428 ft | 365 kts | 105° |
| 2026-04-17 10:49 | 64.38794 | -164.40782 | 21049 ft | 368 kts | 105° |
| 2026-04-17 10:49 | 64.38115 | -164.35047 | 21669 ft | 371 kts | 105° |
| 2026-04-17 10:49 | 64.37428 | -164.29269 | 22256 ft | 375 kts | 105° |
| 2026-04-17 10:50 | 64.36732 | -164.23440 | 22822 ft | 378 kts | 105° |
| 2026-04-17 10:50 | 64.36026 | -164.17570 | 23385 ft | 381 kts | 105° |
| 2026-04-17 10:50 | 64.35312 | -164.11654 | 23923 ft | 384 kts | 105° |
| 2026-04-17 10:50 | 64.34594 | -164.05693 | 24432 ft | 387 kts | 105° |
| 2026-04-17 10:51 | 64.33868 | -163.99684 | 24904 ft | 391 kts | 105° |
| 2026-04-17 10:51 | 64.33131 | -163.93612 | 25352 ft | 395 kts | 105° |
| 2026-04-17 10:51 | 64.32383 | -163.87490 | 25792 ft | 399 kts | 105° |
| 2026-04-17 10:51 | 64.31624 | -163.81312 | 26211 ft | 403 kts | 105° |
| 2026-04-17 10:52 | 64.30855 | -163.75083 | 26617 ft | 406 kts | 105° |
| 2026-04-17 10:52 | 64.30076 | -163.68785 | 27013 ft | 410 kts | 105° |
| 2026-04-17 10:52 | 64.29289 | -163.62444 | 27384 ft | 414 kts | 105° |
| 2026-04-17 10:52 | 64.28493 | -163.56057 | 27753 ft | 417 kts | 105° |
| 2026-04-17 10:53 | 64.27688 | -163.49620 | 28116 ft | 420 kts | 105° |
| 2026-04-17 10:53 | 64.26872 | -163.43137 | 28445 ft | 423 kts | 105° |
| 2026-04-17 10:53 | 64.26048 | -163.36610 | 28775 ft | 426 kts | 106° |
| 2026-04-17 10:53 | 64.25216 | -163.30040 | 29081 ft | 430 kts | 106° |
| 2026-04-17 10:54 | 64.24373 | -163.23425 | 29388 ft | 432 kts | 106° |
| 2026-04-17 10:54 | 64.23522 | -163.16765 | 29688 ft | 435 kts | 106° |
| 2026-04-17 10:54 | 64.22663 | -163.10065 | 29836 ft | 441 kts | 106° |
| 2026-04-17 10:54 | 64.21787 | -163.03275 | 30023 ft | 445 kts | 106° |
| 2026-04-17 10:55 | 64.20891 | -162.96353 | 30278 ft | 447 kts | 106° |
| 2026-04-17 10:55 | 64.20002 | -162.89514 | 30547 ft | 448 kts | 107° |
| 2026-04-17 10:55 | 64.19117 | -162.82733 | 30808 ft | 449 kts | 107° |
| 2026-04-17 10:55 | 64.18204 | -162.75775 | 31082 ft | 450 kts | 107° |
| 2026-04-17 10:56 | 64.17299 | -162.68896 | 31352 ft | 451 kts | 107° |
| 2026-04-17 10:56 | 64.16389 | -162.62016 | 31617 ft | 451 kts | 107° |
| 2026-04-17 10:56 | 64.15474 | -162.55127 | 31876 ft | 452 kts | 107° |
| 2026-04-17 10:56 | 64.14556 | -162.48238 | 32122 ft | 453 kts | 107° |
| 2026-04-17 10:57 | 64.13632 | -162.41342 | 32359 ft | 453 kts | 107° |
| 2026-04-17 10:57 | 64.12705 | -162.34443 | 32600 ft | 454 kts | 107° |
| 2026-04-17 10:57 | 64.11773 | -162.27541 | 32825 ft | 455 kts | 107° |
| 2026-04-17 10:57 | 64.10835 | -162.20622 | 33058 ft | 455 kts | 108° |
| 2026-04-17 10:58 | 64.09892 | -162.13701 | 33276 ft | 456 kts | 108° |
| 2026-04-17 10:58 | 64.08947 | -162.06788 | 33499 ft | 456 kts | 108° |
| 2026-04-17 10:58 | 64.07997 | -161.99871 | 33707 ft | 457 kts | 108° |
| 2026-04-17 10:58 | 64.07043 | -161.92949 | 33920 ft | 457 kts | 108° |
| 2026-04-17 10:59 | 64.06084 | -161.86022 | 34128 ft | 457 kts | 108° |
| 2026-04-17 10:59 | 64.05123 | -161.79105 | 34326 ft | 458 kts | 108° |
| 2026-04-17 10:59 | 64.04156 | -161.72177 | 34530 ft | 458 kts | 108° |
| 2026-04-17 10:59 | 64.03185 | -161.65252 | 34725 ft | 458 kts | 108° |
| 2026-04-17 11:00 | 64.02212 | -161.58333 | 34891 ft | 459 kts | 108° |
| 2026-04-17 11:00 | 64.00241 | -161.44415 | 34907 ft | 463 kts | 108° |
| 2026-04-17 11:01 | 63.98243 | -161.30418 | 34907 ft | 464 kts | 108° |
| 2026-04-17 11:01 | 63.96237 | -161.16479 | 34907 ft | 461 kts | 108° |
| 2026-04-17 11:02 | 63.94237 | -161.02695 | 34905 ft | 457 kts | 109° |
| 2026-04-17 11:02 | 63.92233 | -160.88991 | 34904 ft | 456 kts | 109° |
| 2026-04-17 11:03 | 63.90216 | -160.75327 | 34904 ft | 456 kts | 109° |
| 2026-04-17 11:03 | 63.88138 | -160.61604 | 34904 ft | 456 kts | 110° |
| 2026-04-17 11:04 | 63.85893 | -160.48139 | 34903 ft | 457 kts | 111° |
| 2026-04-17 11:04 | 63.83650 | -160.34668 | 34904 ft | 457 kts | 111° |
| 2026-04-17 11:05 | 63.81438 | -160.21153 | 34903 ft | 457 kts | 111° |
| 2026-04-17 11:05 | 63.79198 | -160.07778 | 34904 ft | 457 kts | 111° |
| 2026-04-17 11:06 | 63.76918 | -159.94258 | 34904 ft | 457 kts | 111° |
| 2026-04-17 11:06 | 63.74650 | -159.80836 | 34905 ft | 457 kts | 111° |
| 2026-04-17 11:07 | 63.72367 | -159.67450 | 34903 ft | 457 kts | 112° |
| 2026-04-17 11:07 | 63.70067 | -159.54075 | 34903 ft | 457 kts | 112° |
| 2026-04-17 11:08 | 63.67758 | -159.40722 | 34906 ft | 457 kts | 112° |
| 2026-04-17 11:08 | 63.65436 | -159.27387 | 34907 ft | 457 kts | 112° |
| 2026-04-17 11:09 | 63.63100 | -159.14074 | 34905 ft | 457 kts | 112° |
| 2026-04-17 11:09 | 63.60750 | -159.00770 | 34908 ft | 458 kts | 112° |
| 2026-04-17 11:10 | 63.57203 | -158.80860 | 34908 ft | 458 kts | 113° |
| 2026-04-17 11:10 | 63.54820 | -158.67598 | 34910 ft | 458 kts | 113° |
| 2026-04-17 11:11 | 63.52426 | -158.54361 | 34916 ft | 458 kts | 113° |
| 2026-04-17 11:11 | 63.50019 | -158.41148 | 34918 ft | 458 kts | 113° |
| 2026-04-17 11:12 | 63.47603 | -158.27968 | 34919 ft | 458 kts | 114° |
| 2026-04-17 11:12 | 63.45173 | -158.14804 | 34919 ft | 458 kts | 114° |
| 2026-04-17 11:13 | 63.42733 | -158.01672 | 34919 ft | 458 kts | 114° |
| 2026-04-17 11:13 | 63.40277 | -157.88544 | 34920 ft | 458 kts | 114° |
| 2026-04-17 11:14 | 63.37811 | -157.75447 | 34920 ft | 458 kts | 114° |
| 2026-04-17 11:14 | 63.35331 | -157.62361 | 34920 ft | 458 kts | 114° |
| 2026-04-17 11:15 | 63.32841 | -157.49311 | 34908 ft | 458 kts | 115° |
| 2026-04-17 11:15 | 63.30745 | -157.38388 | 34903 ft | 458 kts | 115° |
| 2026-04-17 11:16 | 63.28234 | -157.25379 | 34900 ft | 458 kts | 115° |
| 2026-04-17 11:16 | 63.25712 | -157.12402 | 34896 ft | 458 kts | 115° |
| 2026-04-17 11:17 | 63.23176 | -156.99437 | 34898 ft | 458 kts | 115° |
| 2026-04-17 11:17 | 63.20631 | -156.86506 | 34896 ft | 458 kts | 115° |
| 2026-04-17 11:18 | 63.18071 | -156.73578 | 34892 ft | 458 kts | 116° |
| 2026-04-17 11:18 | 63.15500 | -156.60680 | 34892 ft | 458 kts | 116° |
| 2026-04-17 11:19 | 63.12915 | -156.47796 | 34891 ft | 458 kts | 116° |
| 2026-04-17 11:19 | 63.10322 | -156.34949 | 34887 ft | 458 kts | 116° |
| 2026-04-17 11:20 | 63.07715 | -156.22115 | 34888 ft | 458 kts | 116° |
| 2026-04-17 11:20 | 63.05100 | -156.09319 | 34885 ft | 458 kts | 116° |
| 2026-04-17 11:21 | 63.02472 | -155.96541 | 34887 ft | 458 kts | 117° |
| 2026-04-17 11:21 | 62.99833 | -155.83789 | 34886 ft | 458 kts | 117° |
| 2026-04-17 11:22 | 62.97159 | -155.70964 | 34886 ft | 458 kts | 117° |
| 2026-04-17 11:22 | 62.94338 | -155.58446 | 34898 ft | 455 kts | 124° |
| 2026-04-17 11:23 | 62.91053 | -155.46560 | 34888 ft | 455 kts | 124° |
| 2026-04-17 11:23 | 62.87726 | -155.34753 | 34886 ft | 455 kts | 124° |
| 2026-04-17 11:24 | 62.84398 | -155.22959 | 34884 ft | 455 kts | 124° |
| 2026-04-17 11:24 | 62.81068 | -155.11187 | 34884 ft | 455 kts | 124° |
| 2026-04-17 11:25 | 62.77722 | -154.99453 | 34884 ft | 455 kts | 125° |
| 2026-04-17 11:25 | 62.74368 | -154.87748 | 34884 ft | 455 kts | 125° |
| 2026-04-17 11:26 | 62.71004 | -154.76058 | 34883 ft | 455 kts | 125° |
| 2026-04-17 11:26 | 62.67630 | -154.64401 | 34884 ft | 455 kts | 126° |
| 2026-04-17 11:27 | 62.64246 | -154.52769 | 34884 ft | 454 kts | 126° |
| 2026-04-17 11:27 | 62.60857 | -154.41175 | 34884 ft | 454 kts | 126° |
| 2026-04-17 11:28 | 62.57460 | -154.29617 | 34883 ft | 454 kts | 126° |
| 2026-04-17 11:28 | 62.54054 | -154.18084 | 34883 ft | 454 kts | 126° |
| 2026-04-17 11:29 | 62.50638 | -154.06589 | 34882 ft | 454 kts | 127° |
| 2026-04-17 11:29 | 62.47216 | -153.95112 | 34881 ft | 454 kts | 127° |
| 2026-04-17 11:30 | 62.43786 | -153.83667 | 34881 ft | 454 kts | 127° |
| 2026-04-17 11:30 | 62.40343 | -153.72248 | 34879 ft | 454 kts | 127° |
| 2026-04-17 11:31 | 62.36893 | -153.60860 | 34880 ft | 454 kts | 127° |
| 2026-04-17 11:31 | 62.33433 | -153.49490 | 34880 ft | 454 kts | 127° |
| 2026-04-17 11:32 | 62.29959 | -153.38138 | 34878 ft | 454 kts | 127° |
| 2026-04-17 11:32 | 62.26477 | -153.26813 | 34878 ft | 454 kts | 127° |
| 2026-04-17 11:33 | 62.22983 | -153.15505 | 34510 ft | 455 kts | 128° |
| 2026-04-17 11:33 | 62.21244 | -153.09895 | 33966 ft | 449 kts | 128° |
| 2026-04-17 11:33 | 62.19501 | -153.04281 | 33441 ft | 444 kts | 128° |
| 2026-04-17 11:34 | 62.17798 | -152.98820 | 32935 ft | 438 kts | 128° |
| 2026-04-17 11:34 | 62.16114 | -152.93438 | 32438 ft | 433 kts | 129° |
| 2026-04-17 11:34 | 62.14600 | -152.87884 | 31963 ft | 433 kts | 120° |
| 2026-04-17 11:34 | 62.13445 | -152.81936 | 31459 ft | 431 kts | 117° |
| 2026-04-17 11:35 | 62.12339 | -152.76025 | 30965 ft | 427 kts | 117° |
| 2026-04-17 11:35 | 62.11258 | -152.70150 | 30478 ft | 423 kts | 117° |
| 2026-04-17 11:35 | 62.10192 | -152.64339 | 29999 ft | 418 kts | 117° |
| 2026-04-17 11:35 | 62.09128 | -152.58586 | 29524 ft | 414 kts | 118° |
| 2026-04-17 11:36 | 62.08067 | -152.52909 | 29055 ft | 410 kts | 118° |
| 2026-04-17 11:36 | 62.07011 | -152.47302 | 28590 ft | 406 kts | 118° |
| 2026-04-17 11:36 | 62.05965 | -152.41747 | 28129 ft | 402 kts | 118° |
| 2026-04-17 11:36 | 62.04929 | -152.36248 | 27674 ft | 398 kts | 118° |
| 2026-04-17 11:37 | 62.03902 | -152.30800 | 27222 ft | 394 kts | 118° |
| 2026-04-17 11:37 | 62.02884 | -152.25418 | 26775 ft | 390 kts | 118° |
| 2026-04-17 11:37 | 62.01872 | -152.20090 | 26342 ft | 386 kts | 118° |
| 2026-04-17 11:37 | 62.00868 | -152.14817 | 25907 ft | 382 kts | 118° |
| 2026-04-17 11:38 | 61.99871 | -152.09601 | 25474 ft | 378 kts | 118° |
| 2026-04-17 11:38 | 61.98883 | -152.04436 | 25043 ft | 375 kts | 118° |
| 2026-04-17 11:38 | 61.97904 | -151.99335 | 24620 ft | 371 kts | 118° |
| 2026-04-17 11:38 | 61.96931 | -151.94278 | 24206 ft | 367 kts | 118° |
| 2026-04-17 11:39 | 61.95967 | -151.89277 | 23790 ft | 363 kts | 118° |
| 2026-04-17 11:39 | 61.95012 | -151.84344 | 23379 ft | 360 kts | 118° |
| 2026-04-17 11:39 | 61.94065 | -151.79454 | 22971 ft | 356 kts | 118° |
| 2026-04-17 11:39 | 61.93126 | -151.74627 | 22567 ft | 352 kts | 118° |
| 2026-04-17 11:40 | 61.92194 | -151.69841 | 22167 ft | 348 kts | 118° |
| 2026-04-17 11:40 | 61.91273 | -151.65123 | 21771 ft | 344 kts | 118° |
| 2026-04-17 11:40 | 61.90361 | -151.60460 | 21380 ft | 340 kts | 118° |
| 2026-04-17 11:40 | 61.89458 | -151.55854 | 20994 ft | 336 kts | 118° |
| 2026-04-17 11:41 | 61.88565 | -151.51313 | 20613 ft | 331 kts | 118° |
| 2026-04-17 11:41 | 61.87681 | -151.46831 | 20237 ft | 329 kts | 118° |
| 2026-04-17 11:41 | 61.86788 | -151.42326 | 19860 ft | 336 kts | 118° |
| 2026-04-17 11:41 | 61.85882 | -151.37757 | 19476 ft | 334 kts | 118° |
| 2026-04-17 11:42 | 61.84985 | -151.33228 | 19094 ft | 333 kts | 118° |
| 2026-04-17 11:42 | 61.84079 | -151.28658 | 18710 ft | 332 kts | 118° |
| 2026-04-17 11:42 | 61.83185 | -151.24167 | 18332 ft | 329 kts | 118° |
| 2026-04-17 11:42 | 61.82304 | -151.19751 | 17958 ft | 323 kts | 118° |
| 2026-04-17 11:43 | 61.81435 | -151.15404 | 17592 ft | 318 kts | 118° |
| 2026-04-17 11:43 | 61.80579 | -151.11143 | 17233 ft | 312 kts | 118° |
| 2026-04-17 11:43 | 61.79720 | -151.06894 | 16926 ft | 318 kts | 117° |
| 2026-04-17 11:43 | 61.78845 | -151.02575 | 16598 ft | 320 kts | 117° |
| 2026-04-17 11:44 | 61.77984 | -150.98257 | 16246 ft | 319 kts | 115° |
| 2026-04-17 11:44 | 61.77376 | -150.93728 | 15898 ft | 321 kts | 108° |
| 2026-04-17 11:44 | 61.76838 | -150.89152 | 15524 ft | 321 kts | 108° |
| 2026-04-17 11:44 | 61.76313 | -150.84613 | 15151 ft | 315 kts | 108° |
| 2026-04-17 11:45 | 61.75801 | -150.80167 | 14786 ft | 308 kts | 108° |
| 2026-04-17 11:45 | 61.75295 | -150.75822 | 14436 ft | 303 kts | 108° |
| 2026-04-17 11:45 | 61.74782 | -150.71470 | 14085 ft | 309 kts | 107° |
| 2026-04-17 11:45 | 61.74259 | -150.67062 | 13726 ft | 310 kts | 107° |
| 2026-04-17 11:46 | 61.73738 | -150.62647 | 13365 ft | 308 kts | 107° |
| 2026-04-17 11:46 | 61.73227 | -150.58316 | 13012 ft | 300 kts | 107° |
| 2026-04-17 11:46 | 61.72729 | -150.54098 | 12665 ft | 293 kts | 107° |
| 2026-04-17 11:46 | 61.72227 | -150.49904 | 12330 ft | 298 kts | 107° |
| 2026-04-17 11:47 | 61.71713 | -150.45642 | 11982 ft | 301 kts | 106° |
| 2026-04-17 11:47 | 61.71200 | -150.41369 | 11631 ft | 298 kts | 106° |
| 2026-04-17 11:47 | 61.70701 | -150.37196 | 11290 ft | 290 kts | 107° |
| 2026-04-17 11:47 | 61.69866 | -150.33466 | 11051 ft | 275 kts | 129° |
| 2026-04-17 11:48 | 61.68489 | -150.30811 | 10910 ft | 267 kts | 151° |
| 2026-04-17 11:48 | 61.66749 | -150.29549 | 10648 ft | 268 kts | 174° |
| 2026-04-17 11:48 | 61.64886 | -150.29226 | 10342 ft | 270 kts | 176° |
| 2026-04-17 11:48 | 61.63023 | -150.29034 | 10030 ft | 264 kts | 177° |
| 2026-04-17 11:49 | 61.61791 | -150.28927 | 9831 ft | 259 kts | 177° |
| 2026-04-17 11:49 | 61.60010 | -150.28756 | 9550 ft | 255 kts | 177° |
| 2026-04-17 11:49 | 61.58238 | -150.28559 | 9283 ft | 254 kts | 176° |
| 2026-04-17 11:49 | 61.56483 | -150.28349 | 9009 ft | 252 kts | 176° |
| 2026-04-17 11:50 | 61.54736 | -150.28139 | 8745 ft | 251 kts | 176° |
| 2026-04-17 11:50 | 61.52990 | -150.27934 | 8478 ft | 250 kts | 176° |
| 2026-04-17 11:50 | 61.51258 | -150.27733 | 8212 ft | 249 kts | 176° |
| 2026-04-17 11:50 | 61.49528 | -150.27534 | 7944 ft | 248 kts | 176° |
| 2026-04-17 11:51 | 61.47807 | -150.27336 | 7682 ft | 247 kts | 176° |
| 2026-04-17 11:51 | 61.46097 | -150.27139 | 7418 ft | 246 kts | 176° |
| 2026-04-17 11:51 | 61.44385 | -150.26940 | 7155 ft | 247 kts | 175° |
| 2026-04-17 11:51 | 61.42679 | -150.26743 | 6886 ft | 245 kts | 176° |
| 2026-04-17 11:52 | 61.40977 | -150.26548 | 6627 ft | 244 kts | 176° |
| 2026-04-17 11:52 | 61.39288 | -150.26354 | 6368 ft | 243 kts | 175° |
| 2026-04-17 11:52 | 61.37601 | -150.26160 | 6116 ft | 242 kts | 175° |
| 2026-04-17 11:52 | 61.35914 | -150.25967 | 5862 ft | 242 kts | 175° |
| 2026-04-17 11:53 | 61.34238 | -150.25774 | 5606 ft | 242 kts | 176° |
| 2026-04-17 11:53 | 61.32557 | -150.25582 | 5344 ft | 241 kts | 176° |
| 2026-04-17 11:53 | 61.30878 | -150.25523 | 5097 ft | 243 kts | 185° |
| 2026-04-17 11:53 | 61.29260 | -150.26453 | 5051 ft | 242 kts | 201° |
| 2026-04-17 11:54 | 61.27670 | -150.27871 | 5027 ft | 247 kts | 202° |
| 2026-04-17 11:54 | 61.26104 | -150.29308 | 5019 ft | 246 kts | 202° |
| 2026-04-17 11:54 | 61.24666 | -150.31147 | 5015 ft | 249 kts | 223° |
| 2026-04-17 11:54 | 61.23724 | -150.34171 | 4953 ft | 251 kts | 251° |
| 2026-04-17 11:55 | 61.23507 | -150.37768 | 4783 ft | 252 kts | 267° |
| 2026-04-17 11:55 | 61.23486 | -150.41340 | 4584 ft | 243 kts | 269° |
| 2026-04-17 11:55 | 61.23503 | -150.44847 | 4406 ft | 242 kts | 270° |
| 2026-04-17 11:55 | 61.23514 | -150.48316 | 4237 ft | 239 kts | 269° |
| 2026-04-17 11:56 | 61.23509 | -150.51653 | 4142 ft | 226 kts | 269° |
| 2026-04-17 11:56 | 61.23494 | -150.54877 | 3996 ft | 221 kts | 268° |
| 2026-04-17 11:56 | 61.23206 | -150.57938 | 3881 ft | 214 kts | 240° |
| 2026-04-17 11:56 | 61.22172 | -150.60050 | 3827 ft | 211 kts | 205° |
| 2026-04-17 11:57 | 61.20733 | -150.60502 | 3782 ft | 213 kts | 169° |
| 2026-04-17 11:57 | 61.19332 | -150.59463 | 3681 ft | 216 kts | 156° |
| 2026-04-17 11:57 | 61.17980 | -150.58088 | 3524 ft | 217 kts | 143° |
| 2026-04-17 11:57 | 61.17013 | -150.55813 | 3502 ft | 209 kts | 118° |
| 2026-04-17 11:58 | 61.16621 | -150.52920 | 3460 ft | 213 kts | 92° |
| 2026-04-17 11:58 | 61.16619 | -150.49836 | 3390 ft | 213 kts | 89° |
| 2026-04-17 11:58 | 61.16644 | -150.46798 | 3301 ft | 208 kts | 89° |
| 2026-04-17 11:58 | 61.16661 | -150.43830 | 3252 ft | 203 kts | 89° |
| 2026-04-17 11:59 | 61.16674 | -150.40933 | 3254 ft | 201 kts | 89° |
| 2026-04-17 11:59 | 61.16686 | -150.38019 | 3252 ft | 203 kts | 89° |
| 2026-04-17 11:59 | 61.16697 | -150.35124 | 3055 ft | 198 kts | 89° |
| 2026-04-17 11:59 | 61.16707 | -150.32314 | 2792 ft | 191 kts | 89° |
| 2026-04-17 12:00 | 61.16716 | -150.29682 | 2558 ft | 176 kts | 89° |
| 2026-04-17 12:00 | 61.16724 | -150.27171 | 2316 ft | 173 kts | 89° |
| 2026-04-17 12:00 | 61.16732 | -150.24703 | 2093 ft | 171 kts | 89° |
| 2026-04-17 12:00 | 61.16739 | -150.22250 | 1863 ft | 170 kts | 89° |
| 2026-04-17 12:01 | 61.16746 | -150.19803 | 1641 ft | 170 kts | 89° |
| 2026-04-17 12:01 | 61.16752 | -150.17322 | 1409 ft | 170 kts | 89° |
| 2026-04-17 12:01 | 61.16758 | -150.14908 | 1195 ft | 163 kts | 89° |
| 2026-04-17 12:01 | 61.16763 | -150.12646 | 975 ft | 156 kts | 89° |
| 2026-04-17 12:02 | 61.16767 | -150.10400 | 771 ft | 153 kts | 89° |
| 2026-04-17 12:02 | 61.16771 | -150.08207 | 568 ft | 152 kts | 89° |
| 2026-04-17 12:02 | 61.16776 | -150.06031 | 362 ft | 151 kts | 89° |
| 2026-04-17 12:02 | 61.16782 | -150.03884 | 214 ft | 147 kts | 89° |
| 2026-04-17 12:03 | 61.16784 | -150.01896 | 162 ft | 118 kts | 89° |
| 2026-04-17 12:03 | 61.16786 | -150.00679 | 161 ft | 56 kts | 90° |
| 2026-04-17 12:03 | 61.16786 | -149.99985 | 161 ft | 32 kts | 86° |
| 2026-04-17 12:03 | 61.16840 | -149.99593 | 161 ft | 25 kts | 62° |
| 2026-04-17 12:04 | 61.16911 | -149.99411 | 161 ft | 13 kts | 11° |
| 2026-04-17 12:04 | 61.17005 | -149.99438 | 161 ft | 15 kts | 346° |
| 2026-04-17 12:04 | 61.17097 | -149.99430 | 161 ft | 14 kts | 32° |
| 2026-04-17 12:04 | 61.17123 | -149.99253 | 161 ft | 15 kts | 89° |
| 2026-04-17 12:05 | 61.17122 | -149.99006 | 161 ft | 16 kts | 93° |
| 2026-04-17 12:05 | 61.17119 | -149.98814 | 161 ft | 11 kts | 84° |
| 2026-04-17 12:05 | 61.17149 | -149.98704 | 161 ft | 7 kts | 41° |
| 2026-04-17 12:05 | 61.17182 | -149.98653 | 161 ft | 7 kts | 30° |
| 2026-04-17 12:06 | 61.17218 | -149.98574 | 161 ft | 8 kts | 61° |
| 2026-04-17 12:06 | 61.17228 | -149.98534 | 161 ft | 0 kts | 63° |